BRYA4: Kings River Nr Berryville, AR

                                SHEF ID:       BRYA4     Kings River near Berryville, AR
STATION TYPE: Stream Gauge

PRECIP STAGE RIV-FLOW BAT-LOAD
in ft cfs volt
Ccp-Rev Ccp-Rev Ccp-Rev Ccp-Rev
(America/Chicago)
12/03 00:00 0.00 3.67 177 12.21
12/03 01:00 0.00 3.65 171 12.20
12/03 02:00 0.00 3.67 177 12.19
12/03 03:00 0.00 3.66 174 12.17
12/03 04:00 0.00 3.68 180 12.17
12/03 05:00 0.00 3.65 171 12.14
12/03 06:00 0.00 3.67 177 12.13
12/03 07:00 0.00 3.69 182 12.12
12/03 08:00 0.00 3.66 174 12.11
12/03 09:00 0.00 3.67 177 12.36
12/03 10:00 0.00 3.66 174 12.50
12/03 11:00 0.00 3.63 166 13.16
12/03 12:00 0.00 3.65 171 13.59
12/03 13:00 0.00 3.67 177 13.75
12/03 14:00 0.00 3.64 169 13.62
12/03 15:00 0.00 3.62 163 13.59
12/03 16:00 0.00 3.68 180 13.55
12/03 17:00 0.00 3.63 166 13.29
12/03 18:00 0.00 3.62 163 12.82
12/03 19:00 0.00 3.64 169 12.48
12/03 20:00 0.00 3.66 174 12.32
12/03 21:00 0.00 3.64 169 12.27
12/03 22:00 0.00 3.61 161 12.25
12/03 23:00 0.00 3.66 174 12.24
Data processed at Thu 04Dec2025 05:22 GMT

NOTICE: If you are parsing this page

Please convert to using our Data API. Starting January 1st, 2026 we will be migrating to: https://water.usace.army.mil with modern pages rendered in JavaScript. You will no longer be able to scrape this page! CWMSDataAPI (CDA)

Timeseries IDs (TSIDs)

TSIDs used from left to right in the data table
BERR.Precip-Inc.Total.1Hour.1Hour.Ccp-Rev
BERR.Stage.Inst.1Hour.0.Ccp-Rev
BERR.Flow.Inst.1Hour.0.Ccp-Rev
BERR.Volt-Battery Load.Inst.1Hour.0.Ccp-Rev

                            

All information presented herein is the property of the government of the United States of America and may be revised or deleted at any time without prior notice. Dissemination of this information without the expressed written consent of the Public Affairs Office, Tulsa District U.S. Army Corps of Engineers is strictly prohibited. These data are gathered electronically and, as presented, have NOT undergone any form of quality control. These data are NOT guaranteed to be valid or correct.